createdAt,value
2023-04-16T00:00:59.746Z,25.00
2023-04-16T00:01:59.795Z,25.00
2023-04-16T00:03:00.063Z,16.95
2023-04-16T00:04:00.095Z,20.81
2023-04-16T00:04:59.686Z,25.00
2023-04-16T00:05:59.669Z,25.00
2023-04-16T00:06:59.661Z,22.46
2023-04-16T00:07:59.647Z,24.36
2023-04-16T00:08:59.650Z,24.65
2023-04-16T00:09:59.619Z,24.44
2023-04-16T00:10:59.644Z,58.67
2023-04-16T00:11:59.604Z,74.66
2023-04-16T00:12:59.604Z,80.23
2023-04-16T00:13:59.601Z,62.33
2023-04-16T00:14:59.553Z,62.63
2023-04-16T00:15:59.565Z,55.12
2023-04-16T00:16:59.579Z,31.43
2023-04-16T00:17:59.603Z,46.24
2023-04-16T00:18:59.510Z,66.28
2023-04-16T00:19:59.480Z,62.95
2023-04-16T00:20:59.507Z,56.86
2023-04-16T00:21:59.458Z,64.22
2023-04-16T00:22:59.451Z,78.27
2023-04-16T00:23:59.436Z,84.02
2023-04-16T00:24:59.429Z,70.70
2023-04-16T00:25:59.438Z,64.67
2023-04-16T00:26:59.410Z,52.44
2023-04-16T00:27:59.411Z,48.99
2023-04-16T00:28:59.388Z,41.12
2023-04-16T00:29:59.393Z,24.44
2023-04-16T00:30:59.409Z,25.00
2023-04-16T00:31:59.340Z,31.83
2023-04-16T00:32:59.345Z,34.25
2023-04-16T00:33:59.358Z,33.73
2023-04-16T00:34:59.297Z,25.00
2023-04-16T00:35:59.297Z,30.50
2023-04-16T00:36:59.287Z,51.57
2023-04-16T00:37:59.292Z,43.80
2023-04-16T00:38:59.300Z,55.66
2023-04-16T00:39:59.298Z,42.18
2023-04-16T00:40:59.341Z,41.09
2023-04-16T00:41:59.394Z,35.63
2023-04-16T00:42:59.362Z,29.66
2023-04-16T00:43:59.376Z,40.82
2023-04-16T00:44:59.408Z,33.56
2023-04-16T00:45:59.460Z,55.80
2023-04-16T00:46:59.407Z,68.53
2023-04-16T00:48:00.547Z,60.22
2023-04-16T00:48:59.434Z,49.19
2023-04-16T00:49:59.424Z,34.02
2023-04-16T00:50:59.449Z,33.19
2023-04-16T00:51:59.420Z,36.81
2023-04-16T00:52:59.458Z,33.42
2023-04-16T00:53:59.496Z,31.67
2023-04-16T00:54:59.515Z,39.55
2023-04-16T00:55:59.503Z,32.01
2023-04-16T00:56:59.537Z,27.94
2023-04-16T00:57:59.517Z,0.00
2023-04-16T00:58:59.536Z,2.38
2023-04-16T00:59:59.521Z,29.38
2023-04-16T01:00:59.538Z,70.46
2023-04-16T01:01:59.701Z,114.25
2023-04-16T01:02:59.694Z,113.30
2023-04-16T01:03:59.713Z,108.85
2023-04-16T01:04:59.574Z,88.65
2023-04-16T01:05:59.579Z,75.06
2023-04-16T01:06:59.582Z,73.69
2023-04-16T01:07:59.575Z,87.24
2023-04-16T01:08:59.586Z,64.47
2023-04-16T01:09:59.598Z,22.21
2023-04-16T01:10:59.602Z,33.54
2023-04-16T01:11:59.635Z,73.00
2023-04-16T01:12:59.653Z,79.25
2023-04-16T01:13:59.684Z,110.04
2023-04-16T01:14:59.712Z,111.78
2023-04-16T01:15:59.782Z,89.67
2023-04-16T01:16:59.735Z,52.39
2023-04-16T01:17:59.876Z,25.00
2023-04-16T01:18:59.716Z,44.72
2023-04-16T01:19:59.759Z,60.19
2023-04-16T01:20:59.754Z,54.81
2023-04-16T01:21:59.795Z,31.76
2023-04-16T01:22:59.762Z,9.31
2023-04-16T01:23:59.772Z,27.20
2023-04-16T01:24:59.751Z,51.27
2023-04-16T01:25:59.769Z,24.31
2023-04-16T01:26:59.792Z,24.22
2023-04-16T01:27:59.792Z,37.22
2023-04-16T01:28:59.858Z,49.92
2023-04-16T01:29:59.907Z,70.70
2023-04-16T01:30:59.992Z,122.83
2023-04-16T01:32:00.036Z,155.41
2023-04-16T01:33:00.065Z,151.59
2023-04-16T01:34:00.036Z,120.31
2023-04-16T01:35:00.033Z,112.94
2023-04-16T01:36:00.065Z,139.21
2023-04-16T01:37:00.148Z,185.75
2023-04-16T01:38:00.151Z,206.19
2023-04-16T01:39:00.179Z,214.33
2023-04-16T01:40:00.201Z,210.20
2023-04-16T01:41:00.259Z,215.26
2023-04-16T01:42:00.285Z,216.80
2023-04-16T01:43:00.266Z,207.74
2023-04-16T01:44:00.290Z,216.86
2023-04-16T01:45:00.278Z,221.14
2023-04-16T01:46:00.296Z,218.44
2023-04-16T01:47:00.431Z,226.92
2023-04-16T01:48:00.336Z,241.21
2023-04-16T01:49:00.319Z,247.00
2023-04-16T01:50:00.358Z,250.34
2023-04-16T01:51:00.335Z,247.88
2023-04-16T01:52:00.332Z,243.36
2023-04-16T01:53:00.349Z,241.15
2023-04-16T01:54:00.354Z,233.34
2023-04-16T01:55:00.408Z,243.05
2023-04-16T01:56:00.393Z,245.57
2023-04-16T01:57:00.403Z,246.71
2023-04-16T01:58:00.387Z,220.37
2023-04-16T01:59:00.418Z,194.02
2023-04-16T02:00:00.418Z,163.30
2023-04-16T02:01:00.532Z,120.40
2023-04-16T02:02:00.580Z,79.18
2023-04-16T02:03:00.691Z,64.02
2023-04-16T02:04:00.650Z,85.75
2023-04-16T02:05:00.440Z,75.37
2023-04-16T02:06:00.477Z,64.40
2023-04-16T02:07:00.444Z,32.34
2023-04-16T02:08:00.472Z,30.81
2023-04-16T02:09:00.488Z,31.95
2023-04-16T02:10:00.511Z,78.02
2023-04-16T02:11:00.495Z,114.06
2023-04-16T02:12:00.516Z,139.29
2023-04-16T02:13:00.531Z,152.16
2023-04-16T02:14:00.572Z,118.71
2023-04-16T02:15:00.601Z,107.07
2023-04-16T02:16:00.720Z,104.90
2023-04-16T02:17:00.695Z,89.55
2023-04-16T02:18:00.814Z,75.23
2023-04-16T02:19:00.802Z,63.18
2023-04-16T02:20:00.909Z,101.87
2023-04-16T02:21:00.899Z,116.55
2023-04-16T02:22:00.965Z,115.87
2023-04-16T02:23:00.993Z,115.98
2023-04-16T02:24:01.020Z,165.55
2023-04-16T02:25:01.108Z,188.67
2023-04-16T02:26:01.121Z,187.39
2023-04-16T02:27:01.170Z,166.07
2023-04-16T02:28:01.216Z,156.79
2023-04-16T02:29:01.255Z,153.90
2023-04-16T02:30:01.387Z,155.44
2023-04-16T02:31:01.340Z,158.35
2023-04-16T02:32:01.396Z,148.57
2023-04-16T02:33:01.449Z,163.82
2023-04-16T02:34:01.373Z,187.79
2023-04-16T02:35:01.452Z,206.44
2023-04-16T02:36:01.498Z,235.18
2023-04-16T02:37:01.501Z,250.00
2023-04-16T02:38:01.617Z,249.79
2023-04-16T02:39:01.600Z,249.91
2023-04-16T02:40:01.725Z,250.00
2023-04-16T02:41:01.733Z,250.00
2023-04-16T02:42:01.724Z,249.16
2023-04-16T02:43:01.783Z,219.33
2023-04-16T02:44:01.857Z,193.27
2023-04-16T02:45:01.881Z,166.35
2023-04-16T02:46:02.052Z,144.39
2023-04-16T02:47:01.939Z,133.60
2023-04-16T02:48:02.138Z,130.80
2023-04-16T02:49:02.052Z,120.46
2023-04-16T02:50:02.081Z,113.54
2023-04-16T02:51:02.140Z,118.45
2023-04-16T02:52:02.229Z,116.54
2023-04-16T02:53:02.208Z,109.02
2023-04-16T02:54:02.283Z,99.64
2023-04-16T02:55:02.298Z,88.86
2023-04-16T02:56:02.339Z,81.75
2023-04-16T02:57:02.396Z,84.19
2023-04-16T02:58:02.418Z,86.04
2023-04-16T02:59:02.474Z,86.41
2023-04-16T03:00:02.504Z,96.77
2023-04-16T03:01:02.601Z,101.31
2023-04-16T03:02:02.555Z,107.55
2023-04-16T03:03:02.646Z,125.72
2023-04-16T03:04:02.629Z,163.33
2023-04-16T03:05:02.636Z,160.79
2023-04-16T03:06:02.671Z,161.72
2023-04-16T03:07:02.960Z,170.96
2023-04-16T03:08:02.704Z,185.19
2023-04-16T03:09:02.714Z,206.45
2023-04-16T03:10:02.729Z,228.61
2023-04-16T03:11:02.731Z,243.07
2023-04-16T03:12:02.707Z,250.00
2023-04-16T03:13:02.743Z,248.21
2023-04-16T03:14:02.759Z,250.00
2023-04-16T03:15:02.834Z,250.00
2023-04-16T03:16:02.887Z,250.00
2023-04-16T03:17:02.803Z,250.00
2023-04-16T03:18:02.895Z,233.14
2023-04-16T03:19:02.927Z,225.00
2023-04-16T03:20:02.942Z,226.25
2023-04-16T03:21:02.969Z,211.43
2023-04-16T03:22:03.005Z,194.34
2023-04-16T03:23:03.032Z,181.04
2023-04-16T03:24:03.052Z,177.46
2023-04-16T03:25:03.070Z,178.68
2023-04-16T03:26:03.131Z,173.48
2023-04-16T03:27:03.117Z,165.91
2023-04-16T03:28:03.127Z,160.87
2023-04-16T03:29:03.159Z,168.49
2023-04-16T03:30:03.200Z,173.46
2023-04-16T03:31:03.271Z,162.56
2023-04-16T03:32:03.258Z,165.62
2023-04-16T03:33:03.275Z,153.73
2023-04-16T03:34:03.308Z,145.89
2023-04-16T03:35:03.334Z,164.04
2023-04-16T03:36:03.352Z,179.29
2023-04-16T03:37:03.377Z,188.69
2023-04-16T03:38:03.429Z,193.83
2023-04-16T03:39:03.431Z,190.80
2023-04-16T03:40:03.464Z,200.39
2023-04-16T03:41:03.476Z,207.92
2023-04-16T03:42:03.517Z,207.85
2023-04-16T03:43:03.651Z,212.02
2023-04-16T03:44:03.594Z,194.28
2023-04-16T03:45:03.651Z,184.57
2023-04-16T03:46:03.680Z,175.40
2023-04-16T03:47:03.693Z,156.24
2023-04-16T03:48:03.683Z,144.25
2023-04-16T03:49:03.682Z,137.05
2023-04-16T03:50:03.713Z,132.73
2023-04-16T03:51:03.729Z,134.04
2023-04-16T03:52:03.780Z,143.62
2023-04-16T03:53:03.798Z,143.32
2023-04-16T03:54:03.809Z,142.84
2023-04-16T03:55:03.808Z,154.10
2023-04-16T03:56:03.784Z,163.74
2023-04-16T03:57:03.811Z,162.91
2023-04-16T03:58:03.847Z,146.99
2023-04-16T03:59:04.429Z,146.29
2023-04-16T04:00:03.848Z,152.08
2023-04-16T04:01:03.856Z,143.32
2023-04-16T04:02:03.990Z,145.44
2023-04-16T04:03:04.277Z,143.49
2023-04-16T04:04:04.290Z,146.09
2023-04-16T04:05:04.055Z,151.53
2023-04-16T04:06:03.882Z,152.82
2023-04-16T04:07:03.909Z,156.01
2023-04-16T04:08:03.963Z,141.46
2023-04-16T04:09:04.053Z,140.07
2023-04-16T04:10:04.098Z,151.95
2023-04-16T04:11:04.137Z,159.53
2023-04-16T04:12:04.164Z,179.69
2023-04-16T04:13:04.170Z,165.19
2023-04-16T04:14:04.238Z,158.64
2023-04-16T04:15:04.208Z,153.39
2023-04-16T04:16:04.267Z,131.01
2023-04-16T04:17:04.249Z,124.28
2023-04-16T04:18:04.317Z,120.43
2023-04-16T04:19:04.295Z,89.70
2023-04-16T04:20:04.319Z,88.56
2023-04-16T04:21:04.333Z,81.87
2023-04-16T04:22:04.371Z,46.07
2023-04-16T04:23:04.432Z,38.80
2023-04-16T04:24:04.467Z,60.43
2023-04-16T04:25:04.519Z,119.58
2023-04-16T04:26:04.555Z,156.33
2023-04-16T04:27:04.536Z,185.11
2023-04-16T04:28:04.567Z,203.13
2023-04-16T04:29:04.581Z,217.58
2023-04-16T04:30:04.615Z,240.99
2023-04-16T04:31:04.642Z,231.21
2023-04-16T04:32:04.694Z,237.12
2023-04-16T04:33:04.768Z,240.44
2023-04-16T04:34:04.782Z,233.94
2023-04-16T04:35:04.826Z,238.90
2023-04-16T04:36:04.886Z,248.90
2023-04-16T04:37:04.929Z,250.00
2023-04-16T04:38:04.933Z,233.67
2023-04-16T04:39:04.962Z,211.75
2023-04-16T04:40:04.993Z,186.90
2023-04-16T04:41:05.037Z,162.84
2023-04-16T04:42:05.064Z,152.63
2023-04-16T04:43:05.108Z,163.40
2023-04-16T04:44:05.158Z,163.46
2023-04-16T04:45:05.221Z,160.40
2023-04-16T04:46:05.306Z,151.98
2023-04-16T04:47:05.296Z,147.06
2023-04-16T04:48:05.391Z,149.30
2023-04-16T04:49:05.386Z,131.20
2023-04-16T04:50:05.438Z,147.26
2023-04-16T04:51:05.585Z,166.45
2023-04-16T04:52:05.550Z,173.90
2023-04-16T04:53:05.583Z,157.06
2023-04-16T04:54:05.626Z,153.88
2023-04-16T04:55:05.658Z,160.15
2023-04-16T04:56:12.095Z,173.31
2023-04-16T04:57:05.699Z,173.75
2023-04-16T04:58:05.688Z,175.41
2023-04-16T04:59:05.707Z,176.63
2023-04-16T05:00:05.667Z,181.55
2023-04-16T05:01:05.721Z,186.20
2023-04-16T05:02:05.707Z,185.37
2023-04-16T05:03:05.687Z,174.43
2023-04-16T05:04:05.767Z,172.36
2023-04-16T05:05:05.654Z,161.81
2023-04-16T05:06:05.640Z,154.37
2023-04-16T05:07:05.621Z,148.35
2023-04-16T05:08:05.630Z,142.51
2023-04-16T05:09:05.623Z,144.21
2023-04-16T05:10:05.593Z,152.54
2023-04-16T05:11:05.590Z,160.11
2023-04-16T05:12:05.588Z,166.71
2023-04-16T05:13:06.402Z,159.04
2023-04-16T05:14:05.554Z,146.07
2023-04-16T05:15:05.537Z,132.51
2023-04-16T05:16:05.525Z,102.77
2023-04-16T05:17:05.535Z,94.31
2023-04-16T05:18:06.074Z,109.01
2023-04-16T05:19:05.482Z,128.48
2023-04-16T05:20:05.474Z,153.09
2023-04-16T05:21:05.475Z,148.89
2023-04-16T05:22:05.512Z,138.46
2023-04-16T05:23:05.445Z,134.24
2023-04-16T05:24:05.432Z,130.09
2023-04-16T05:25:05.434Z,122.57
2023-04-16T05:26:05.425Z,129.60
2023-04-16T05:27:05.462Z,143.21
2023-04-16T05:28:05.433Z,144.94
2023-04-16T05:29:05.450Z,144.97
2023-04-16T05:30:05.470Z,165.14
2023-04-16T05:31:05.568Z,158.52
2023-04-16T05:32:05.550Z,150.51
2023-04-16T05:33:05.620Z,152.50
2023-04-16T05:34:05.725Z,146.27
2023-04-16T05:35:05.776Z,142.03
2023-04-16T05:36:05.853Z,148.66
2023-04-16T05:37:05.915Z,151.81
2023-04-16T05:38:05.961Z,146.73
2023-04-16T05:39:05.995Z,144.89
2023-04-16T05:40:05.982Z,160.67
2023-04-16T05:41:06.000Z,144.65
2023-04-16T05:42:06.063Z,131.32
2023-04-16T05:43:06.129Z,116.72
2023-04-16T05:44:06.182Z,99.74
2023-04-16T05:45:06.227Z,90.50
2023-04-16T05:46:06.296Z,60.81
2023-04-16T05:47:06.307Z,57.70
2023-04-16T05:48:06.324Z,56.04
2023-04-16T05:49:06.348Z,64.54
2023-04-16T05:50:06.413Z,84.97
2023-04-16T05:51:06.434Z,97.13
2023-04-16T05:52:06.445Z,109.70
2023-04-16T05:53:06.471Z,154.83
2023-04-16T05:54:06.488Z,197.07
2023-04-16T05:55:06.540Z,224.23
2023-04-16T05:56:06.593Z,213.59
2023-04-16T05:57:06.653Z,187.12
2023-04-16T05:58:06.694Z,158.77
2023-04-16T05:59:06.820Z,158.24
2023-04-16T06:00:06.738Z,173.43
2023-04-16T06:01:06.825Z,183.71
2023-04-16T06:02:06.907Z,190.65
2023-04-16T06:03:07.331Z,178.97
2023-04-16T06:04:07.399Z,182.66
2023-04-16T06:05:07.206Z,194.73
2023-04-16T06:06:07.247Z,203.30
2023-04-16T06:07:07.275Z,199.58
2023-04-16T06:08:07.353Z,194.42
2023-04-16T06:09:07.607Z,183.10
2023-04-16T06:10:07.441Z,155.66
2023-04-16T06:11:07.504Z,151.78
2023-04-16T06:12:07.566Z,148.06
2023-04-16T06:13:07.588Z,121.96
2023-04-16T06:14:07.623Z,87.82
2023-04-16T06:15:07.631Z,96.75
2023-04-16T06:16:07.618Z,102.08
2023-04-16T06:17:07.612Z,98.33
2023-04-16T06:18:07.644Z,75.17
2023-04-16T06:19:07.874Z,59.06
2023-04-16T06:20:07.647Z,23.77
2023-04-16T06:21:07.702Z,23.79
2023-04-16T06:22:07.751Z,35.46
2023-04-16T06:23:07.758Z,42.74
2023-04-16T06:24:07.794Z,73.10
2023-04-16T06:25:07.803Z,75.19
2023-04-16T06:26:07.831Z,56.42
2023-04-16T06:27:07.847Z,28.64
2023-04-16T06:28:07.874Z,17.49
2023-04-16T06:29:08.175Z,8.73
2023-04-16T06:30:07.919Z,0.00
2023-04-16T06:31:08.003Z,1.02
2023-04-16T06:32:08.004Z,14.10
2023-04-16T06:33:08.952Z,23.98
2023-04-16T06:34:08.093Z,26.45
2023-04-16T06:35:08.105Z,62.49
2023-04-16T06:36:08.121Z,84.00
2023-04-16T06:37:10.503Z,95.66
2023-04-16T06:38:08.095Z,118.02
2023-04-16T06:39:08.257Z,122.36
2023-04-16T06:40:08.008Z,128.70
2023-04-16T06:41:07.970Z,149.04
2023-04-16T06:42:07.943Z,174.57
2023-04-16T06:43:07.952Z,168.86
2023-04-16T06:44:07.894Z,178.99
2023-04-16T06:45:07.851Z,189.76
2023-04-16T06:46:07.815Z,215.38
2023-04-16T06:47:07.861Z,241.38
2023-04-16T06:48:07.847Z,254.55
2023-04-16T06:49:07.836Z,241.24
2023-04-16T06:50:07.700Z,217.28
2023-04-16T06:51:07.674Z,209.90
2023-04-16T06:52:07.637Z,191.47
2023-04-16T06:53:07.618Z,195.71
2023-04-16T06:54:07.611Z,187.25
2023-04-16T06:55:07.593Z,174.29
2023-04-16T06:56:07.494Z,169.86
2023-04-16T06:57:07.476Z,167.04
2023-04-16T06:58:07.425Z,157.75
2023-04-16T06:59:07.609Z,148.69
2023-04-16T07:00:07.391Z,115.25
2023-04-16T07:01:07.405Z,105.84
2023-04-16T07:02:07.372Z,106.52
2023-04-16T07:03:07.552Z,47.41
2023-04-16T07:04:07.362Z,37.20
2023-04-16T07:05:07.322Z,48.45
2023-04-16T07:06:07.294Z,59.24
2023-04-16T07:07:07.315Z,59.45
2023-04-16T07:08:07.343Z,62.67
2023-04-16T07:09:07.423Z,60.87
2023-04-16T07:10:07.393Z,21.46
2023-04-16T07:11:07.448Z,27.36
2023-04-16T07:12:07.374Z,21.49
2023-04-16T07:13:07.331Z,29.39
2023-04-16T07:14:07.333Z,37.66
2023-04-16T07:15:07.352Z,39.36
2023-04-16T07:16:07.417Z,33.17
2023-04-16T07:17:07.410Z,29.31
2023-04-16T07:18:07.502Z,34.82
2023-04-16T07:19:07.691Z,39.39
2023-04-16T07:20:07.566Z,50.49
2023-04-16T07:21:07.620Z,45.09
2023-04-16T07:22:07.657Z,39.31
2023-04-16T07:23:07.687Z,36.51
2023-04-16T07:24:07.713Z,32.30
2023-04-16T07:25:07.725Z,31.52
2023-04-16T07:26:07.770Z,31.24
2023-04-16T07:27:07.747Z,37.90
2023-04-16T07:28:07.721Z,24.02
2023-04-16T07:29:07.858Z,22.26
2023-04-16T07:30:07.718Z,0.00
2023-04-16T07:31:07.737Z,0.00
2023-04-16T07:32:07.816Z,0.00
2023-04-16T07:33:07.823Z,0.00
2023-04-16T07:34:07.747Z,0.00
2023-04-16T07:35:07.723Z,0.00
2023-04-16T07:36:07.735Z,0.00
2023-04-16T07:37:07.700Z,0.23
2023-04-16T07:38:07.726Z,7.10
2023-04-16T07:39:08.003Z,21.87
2023-04-16T07:40:07.795Z,24.85
2023-04-16T07:41:07.802Z,25.64
2023-04-16T07:42:07.830Z,24.79
2023-04-16T07:43:07.821Z,18.80
2023-04-16T07:44:07.822Z,20.20
2023-04-16T07:45:07.929Z,25.85
2023-04-16T07:46:07.935Z,25.46
2023-04-16T07:47:07.902Z,31.90
2023-04-16T07:48:07.901Z,42.37
2023-04-16T07:49:08.098Z,42.07
2023-04-16T07:50:07.927Z,44.24
2023-04-16T07:51:07.939Z,52.47
2023-04-16T07:52:07.950Z,19.11
2023-04-16T07:53:08.039Z,6.67
2023-04-16T07:54:07.956Z,10.58
2023-04-16T07:55:07.945Z,18.50
2023-04-16T07:56:07.915Z,7.11
2023-04-16T07:57:07.891Z,0.00
2023-04-16T07:58:07.872Z,9.81
2023-04-16T07:59:20.900Z,25.00
2023-04-16T08:00:07.760Z,25.06
2023-04-16T08:01:07.695Z,13.69
2023-04-16T08:02:07.706Z,8.80
2023-04-16T08:03:07.891Z,16.31
2023-04-16T08:04:07.673Z,9.34
2023-04-16T08:05:07.529Z,13.58
2023-04-16T08:06:07.450Z,2.87
2023-04-16T08:07:07.386Z,4.61
2023-04-16T08:08:07.342Z,2.57
2023-04-16T08:09:07.432Z,6.62
2023-04-16T08:10:07.277Z,3.84
2023-04-16T08:11:07.196Z,0.00
2023-04-16T08:12:07.126Z,0.00
2023-04-16T08:13:07.090Z,5.34
2023-04-16T08:14:07.054Z,16.58
2023-04-16T08:15:06.981Z,30.51
2023-04-16T08:16:06.943Z,26.34
2023-04-16T08:17:06.847Z,30.91
2023-04-16T08:18:06.847Z,27.94
2023-04-16T08:19:06.737Z,25.25
2023-04-16T08:20:06.665Z,25.08
2023-04-16T08:21:06.607Z,24.79
2023-04-16T08:22:06.531Z,34.83
2023-04-16T08:23:06.471Z,40.81
2023-04-16T08:24:06.406Z,40.11
2023-04-16T08:25:06.343Z,38.00
2023-04-16T08:26:06.321Z,50.53
2023-04-16T08:27:17.749Z,50.04
2023-04-16T08:28:06.235Z,46.23
2023-04-16T08:29:06.154Z,44.54
2023-04-16T08:30:06.114Z,46.27
2023-04-16T08:31:06.052Z,46.31
2023-04-16T08:32:05.960Z,50.95
2023-04-16T08:33:05.998Z,52.48
2023-04-16T08:34:05.933Z,44.31
2023-04-16T08:35:05.769Z,46.87
2023-04-16T08:36:05.720Z,35.74
2023-04-16T08:37:05.707Z,24.96
2023-04-16T08:38:05.588Z,37.13
2023-04-16T08:39:05.524Z,29.07
2023-04-16T08:40:05.450Z,34.81
2023-04-16T08:41:05.396Z,30.49
2023-04-16T08:42:05.316Z,19.39
2023-04-16T08:43:05.228Z,24.17
2023-04-16T08:44:05.156Z,33.44
2023-04-16T08:45:05.076Z,37.76
2023-04-16T08:46:05.083Z,26.05
2023-04-16T08:47:05.012Z,21.57
2023-04-16T08:48:04.861Z,16.37
2023-04-16T08:49:04.756Z,15.14
2023-04-16T08:50:04.687Z,22.13
2023-04-16T08:51:04.634Z,26.02
2023-04-16T08:52:04.540Z,27.75
2023-04-16T08:53:04.465Z,29.05
2023-04-16T08:54:04.395Z,20.36
2023-04-16T08:55:04.319Z,29.33
2023-04-16T08:56:04.252Z,32.26
2023-04-16T08:57:04.183Z,31.69
2023-04-16T08:58:04.112Z,25.26
2023-04-16T08:59:04.051Z,25.22
2023-04-16T09:00:03.970Z,27.00
2023-04-16T09:01:03.954Z,19.08
2023-04-16T09:02:04.029Z,20.71
2023-04-16T09:03:03.779Z,20.80
2023-04-16T09:04:03.902Z,25.66
2023-04-16T09:05:03.593Z,33.74
2023-04-16T09:06:03.501Z,39.28
2023-04-16T09:07:03.442Z,33.87
2023-04-16T09:08:03.349Z,38.65
2023-04-16T09:09:03.284Z,38.18
2023-04-16T09:10:03.198Z,46.94
2023-04-16T09:11:03.130Z,47.37
2023-04-16T09:12:03.039Z,43.68
2023-04-16T09:13:02.962Z,37.70
2023-04-16T09:14:02.884Z,39.73
2023-04-16T09:15:02.871Z,41.56
2023-04-16T09:16:02.751Z,49.01
2023-04-16T09:17:02.626Z,57.15
2023-04-16T09:18:02.633Z,62.33
2023-04-16T09:19:02.468Z,63.93
2023-04-16T09:20:02.391Z,55.43
2023-04-16T09:21:02.309Z,56.36
2023-04-16T09:22:02.284Z,50.03
2023-04-16T09:23:02.253Z,44.10
2023-04-16T09:24:02.246Z,46.17
2023-04-16T09:25:02.185Z,57.05
2023-04-16T09:26:02.156Z,52.12
2023-04-16T09:27:02.095Z,53.37
2023-04-16T09:28:02.028Z,65.86
2023-04-16T09:29:01.959Z,77.44
2023-04-16T09:30:01.969Z,78.54
2023-04-16T09:31:01.844Z,80.96
2023-04-16T09:32:01.845Z,78.77
2023-04-16T09:33:01.798Z,72.48
2023-04-16T09:34:01.694Z,76.41
2023-04-16T09:35:01.610Z,72.06
2023-04-16T09:36:01.485Z,76.80
2023-04-16T09:37:01.425Z,78.69
2023-04-16T09:38:01.360Z,72.68
2023-04-16T09:39:01.285Z,75.67
2023-04-16T09:40:01.232Z,86.11
2023-04-16T09:41:01.155Z,80.79
2023-04-16T09:42:01.135Z,77.35
2023-04-16T09:43:01.095Z,78.61
2023-04-16T09:44:01.031Z,76.54
2023-04-16T09:45:04.075Z,66.24
2023-04-16T09:46:02.598Z,65.13
2023-04-16T09:47:00.983Z,52.41
2023-04-16T09:48:00.912Z,47.36
2023-04-16T09:49:00.802Z,50.02
2023-04-16T09:50:00.739Z,54.33
2023-04-16T09:51:00.632Z,57.75
2023-04-16T09:52:00.546Z,62.72
2023-04-16T09:53:00.446Z,60.24
2023-04-16T09:54:00.370Z,59.34
2023-04-16T09:55:00.288Z,54.18
2023-04-16T09:56:00.202Z,48.21
2023-04-16T09:57:00.134Z,44.26
2023-04-16T09:58:00.043Z,36.36
2023-04-16T09:58:59.932Z,34.38
2023-04-16T09:59:59.848Z,32.88
2023-04-16T10:00:59.815Z,37.92
2023-04-16T10:02:14.464Z,34.94
2023-04-16T10:02:59.660Z,28.15
2023-04-16T10:03:59.602Z,30.04
2023-04-16T10:04:59.397Z,27.54
2023-04-16T10:05:59.331Z,23.08
2023-04-16T10:06:59.239Z,32.65
2023-04-16T10:07:59.141Z,38.07
2023-04-16T10:08:59.053Z,21.91
2023-04-16T10:09:59.034Z,5.15
2023-04-16T10:10:58.869Z,5.60
2023-04-16T10:11:58.789Z,21.73
2023-04-16T10:12:58.701Z,29.50
2023-04-16T10:13:58.620Z,33.45
2023-04-16T10:14:58.594Z,43.93
2023-04-16T10:15:58.439Z,49.05
2023-04-16T10:16:58.360Z,48.99
2023-04-16T10:17:58.294Z,52.94
2023-04-16T10:18:58.152Z,53.82
2023-04-16T10:19:58.067Z,50.88
2023-04-16T10:20:57.966Z,51.48
2023-04-16T10:21:57.872Z,43.32
2023-04-16T10:22:57.754Z,42.40
2023-04-16T10:23:57.662Z,46.23
2023-04-16T10:24:57.561Z,49.76
2023-04-16T10:25:57.686Z,63.24
2023-04-16T10:26:57.366Z,65.37
2023-04-16T10:27:58.496Z,52.75
2023-04-16T10:28:57.161Z,53.94
2023-04-16T10:29:57.067Z,37.65
2023-04-16T10:30:56.990Z,41.71
2023-04-16T10:31:56.847Z,41.86
2023-04-16T10:32:58.302Z,41.53
2023-04-16T10:33:56.656Z,33.05
2023-04-16T10:34:56.558Z,24.38
2023-04-16T10:36:07.075Z,24.75
2023-04-16T10:36:56.327Z,16.58
2023-04-16T10:37:56.252Z,6.08
2023-04-16T10:38:56.130Z,5.37
2023-04-16T10:39:56.015Z,4.04
2023-04-16T10:40:55.911Z,6.16
2023-04-16T10:41:55.797Z,15.29
2023-04-16T10:42:55.692Z,28.51
2023-04-16T10:43:55.584Z,24.25
2023-04-16T10:44:55.496Z,19.63
2023-04-16T10:45:55.419Z,22.35
2023-04-16T10:46:55.313Z,24.73
2023-04-16T10:47:55.230Z,30.68
2023-04-16T10:48:55.090Z,41.78
2023-04-16T10:49:54.980Z,34.74
2023-04-16T10:50:54.894Z,36.45
2023-04-16T10:51:54.794Z,32.56
2023-04-16T10:52:54.710Z,34.76
2023-04-16T10:53:54.619Z,42.92
2023-04-16T10:54:54.507Z,38.77
2023-04-16T10:55:54.394Z,38.25
2023-04-16T10:56:54.296Z,46.63
2023-04-16T10:57:54.204Z,45.32
2023-04-16T10:58:54.112Z,40.96
2023-04-16T10:59:54.007Z,31.14
2023-04-16T11:00:53.921Z,27.42
2023-04-16T11:01:53.915Z,34.10
2023-04-16T11:02:53.785Z,32.16
2023-04-16T11:03:53.902Z,36.98
2023-04-16T11:04:53.565Z,48.77
2023-04-16T11:05:53.445Z,52.58
2023-04-16T11:06:53.385Z,62.17
2023-04-16T11:07:53.335Z,62.44
2023-04-16T11:08:55.284Z,60.24
2023-04-16T11:09:53.349Z,49.78
2023-04-16T11:10:53.090Z,39.45
2023-04-16T11:11:52.990Z,43.82
2023-04-16T11:12:52.895Z,45.99
2023-04-16T11:13:52.790Z,47.24
2023-04-16T11:14:52.688Z,35.69
2023-04-16T11:15:52.610Z,31.10
2023-04-16T11:16:52.510Z,33.12
2023-04-16T11:17:52.468Z,34.16
2023-04-16T11:18:52.466Z,39.35
2023-04-16T11:19:53.575Z,41.34
2023-04-16T11:20:52.181Z,38.00
2023-04-16T11:21:52.125Z,37.16
2023-04-16T11:22:52.094Z,32.05
2023-04-16T11:23:52.027Z,18.85
2023-04-16T11:24:51.978Z,21.28
2023-04-16T11:25:51.960Z,35.46
2023-04-16T11:26:51.873Z,33.86
2023-04-16T11:27:51.862Z,34.89
2023-04-16T11:28:51.767Z,37.03
2023-04-16T11:29:51.727Z,35.90
2023-04-16T11:30:51.653Z,31.34
2023-04-16T11:31:51.769Z,31.98
2023-04-16T11:32:51.577Z,36.51
2023-04-16T11:33:51.523Z,39.71
2023-04-16T11:34:51.465Z,40.49
2023-04-16T11:35:51.416Z,36.01
2023-04-16T11:36:51.446Z,32.82
2023-04-16T11:37:51.343Z,32.48
2023-04-16T11:38:51.296Z,35.33
2023-04-16T11:39:51.294Z,36.48
2023-04-16T11:40:51.203Z,38.86
2023-04-16T11:41:51.190Z,38.75
2023-04-16T11:42:51.131Z,25.39
2023-04-16T11:43:51.075Z,26.67
2023-04-16T11:44:51.028Z,32.46
2023-04-16T11:45:50.985Z,43.50
2023-04-16T11:46:50.998Z,45.25
2023-04-16T11:47:50.902Z,39.60
2023-04-16T11:48:50.850Z,29.04
2023-04-16T11:49:50.809Z,42.71
2023-04-16T11:50:50.845Z,46.27
2023-04-16T11:51:50.715Z,34.08
2023-04-16T11:52:50.658Z,25.00
2023-04-16T11:53:50.597Z,25.21
2023-04-16T11:54:50.547Z,30.90
2023-04-16T11:55:50.498Z,20.19
2023-04-16T11:56:50.450Z,26.83
2023-04-16T11:57:51.698Z,36.24
2023-04-16T11:58:50.288Z,33.33
2023-04-16T12:00:03.081Z,23.95
2023-04-16T12:00:50.063Z,21.12
2023-04-16T12:01:50.016Z,19.26
2023-04-16T12:02:50.084Z,15.22
2023-04-16T12:03:50.005Z,14.88
2023-04-16T12:04:49.677Z,18.20
2023-04-16T12:05:49.512Z,12.20
2023-04-16T12:06:49.380Z,11.50
2023-04-16T12:07:49.264Z,12.16
2023-04-16T12:08:49.146Z,16.33
2023-04-16T12:09:49.038Z,13.42
2023-04-16T12:10:48.914Z,16.00
2023-04-16T12:11:48.801Z,5.38
2023-04-16T12:12:48.689Z,8.61
2023-04-16T12:13:48.590Z,8.18
2023-04-16T12:14:48.443Z,9.38
2023-04-16T12:15:48.324Z,20.03
2023-04-16T12:16:48.342Z,29.69
2023-04-16T12:17:48.143Z,23.99
2023-04-16T12:18:47.987Z,29.79
2023-04-16T12:19:47.873Z,34.49
2023-04-16T12:20:47.753Z,39.52
2023-04-16T12:21:47.673Z,43.60
2023-04-16T12:22:47.540Z,38.00
2023-04-16T12:23:47.404Z,38.32
2023-04-16T12:24:47.295Z,36.48
2023-04-16T12:25:47.184Z,40.86
2023-04-16T12:26:47.072Z,43.71
2023-04-16T12:27:47.086Z,47.26
2023-04-16T12:28:46.861Z,41.24
2023-04-16T12:29:46.794Z,25.43
2023-04-16T12:30:46.718Z,24.73
2023-04-16T12:31:46.628Z,29.48
2023-04-16T12:32:46.624Z,36.96
2023-04-16T12:33:46.488Z,36.00
2023-04-16T12:34:49.220Z,31.27
2023-04-16T12:35:46.297Z,31.30
2023-04-16T12:36:46.267Z,31.54
2023-04-16T12:37:46.066Z,32.85
2023-04-16T12:38:45.936Z,36.61
2023-04-16T12:39:47.559Z,35.13
2023-04-16T12:40:45.688Z,31.52
2023-04-16T12:41:45.566Z,34.54
2023-04-16T12:42:45.446Z,34.82
2023-04-16T12:43:45.330Z,34.31
2023-04-16T12:44:45.196Z,35.67